sensor_id;sensor_type;location;lat;lon;timestamp;pressure;altitude;pressure_sealevel;temperature;humidity
62201;BME280;48197;42.732;27.192;2023-03-21T00:01:34;99794.59;;;2.86;100.00
62201;BME280;48197;42.732;27.192;2023-03-21T00:04:01;99796.16;;;2.87;100.00
62201;BME280;48197;42.732;27.192;2023-03-21T00:06:28;99789.38;;;2.81;100.00
62201;BME280;48197;42.732;27.192;2023-03-21T00:08:54;99794.31;;;2.75;100.00
62201;BME280;48197;42.732;27.192;2023-03-21T00:11:21;99795.00;;;2.56;100.00
62201;BME280;48197;42.732;27.192;2023-03-21T00:13:48;99799.16;;;2.38;100.00
62201;BME280;48197;42.732;27.192;2023-03-21T00:16:16;99801.31;;;2.32;100.00
62201;BME280;48197;42.732;27.192;2023-03-21T00:18:44;99794.78;;;2.21;100.00
62201;BME280;48197;42.732;27.192;2023-03-21T00:21:14;99796.94;;;2.15;100.00
62201;BME280;48197;42.732;27.192;2023-03-21T00:23:41;99796.94;;;2.15;100.00
62201;BME280;48197;42.732;27.192;2023-03-21T00:26:07;99788.53;;;2.20;100.00
62201;BME280;48197;42.732;27.192;2023-03-21T00:28:42;99784.16;;;2.32;100.00
62201;BME280;48197;42.732;27.192;2023-03-21T00:31:08;99793.84;;;2.29;100.00
62201;BME280;48197;42.732;27.192;2023-03-21T00:33:35;99787.22;;;2.30;100.00
62201;BME280;48197;42.732;27.192;2023-03-21T00:36:04;99792.78;;;2.34;100.00
62201;BME280;48197;42.732;27.192;2023-03-21T00:38:31;99793.59;;;2.34;100.00
62201;BME280;48197;42.732;27.192;2023-03-21T00:40:59;99792.78;;;2.34;100.00
62201;BME280;48197;42.732;27.192;2023-03-21T00:43:26;99793.50;;;2.31;100.00
62201;BME280;48197;42.732;27.192;2023-03-21T00:45:56;99794.63;;;2.30;100.00
62201;BME280;48197;42.732;27.192;2023-03-21T00:48:24;99795.06;;;2.32;100.00
62201;BME280;48197;42.732;27.192;2023-03-21T00:50:52;99791.22;;;2.33;100.00
62201;BME280;48197;42.732;27.192;2023-03-21T00:53:19;99794.03;;;2.36;100.00
62201;BME280;48197;42.732;27.192;2023-03-21T00:55:46;99792.09;;;2.37;100.00
62201;BME280;48197;42.732;27.192;2023-03-21T00:58:13;99791.00;;;2.25;100.00
62201;BME280;48197;42.732;27.192;2023-03-21T01:00:39;99787.88;;;2.11;100.00
62201;BME280;48197;42.732;27.192;2023-03-21T01:03:07;99786.53;;;2.05;100.00
62201;BME280;48197;42.732;27.192;2023-03-21T01:05:37;99774.03;;;2.04;100.00
62201;BME280;48197;42.732;27.192;2023-03-21T01:08:23;99782.06;;;2.13;100.00
62201;BME280;48197;42.732;27.192;2023-03-21T01:10:50;99774.97;;;2.24;100.00
62201;BME280;48197;42.732;27.192;2023-03-21T01:13:19;99772.19;;;2.20;100.00
62201;BME280;48197;42.732;27.192;2023-03-21T01:15:47;99769.03;;;2.06;100.00
62201;BME280;48197;42.732;27.192;2023-03-21T01:18:16;99779.28;;;1.97;100.00
62201;BME280;48197;42.732;27.192;2023-03-21T01:20:43;99779.31;;;1.84;100.00
62201;BME280;48197;42.732;27.192;2023-03-21T01:23:11;99774.44;;;1.78;100.00
62201;BME280;48197;42.732;27.192;2023-03-21T01:25:38;99773.09;;;1.72;100.00
62201;BME280;48197;42.732;27.192;2023-03-21T01:28:05;99776.84;;;1.67;100.00
62201;BME280;48197;42.732;27.192;2023-03-21T01:30:31;99759.50;;;1.59;100.00
62201;BME280;48197;42.732;27.192;2023-03-21T01:32:57;99753.38;;;1.50;100.00
62201;BME280;48197;42.732;27.192;2023-03-21T01:35:24;99746.13;;;1.42;100.00
62201;BME280;48197;42.732;27.192;2023-03-21T01:37:50;99741.13;;;1.32;100.00
62201;BME280;48197;42.732;27.192;2023-03-21T01:40:19;99733.88;;;1.23;100.00
62201;BME280;48197;42.732;27.192;2023-03-21T01:42:46;99731.84;;;1.20;100.00
62201;BME280;48197;42.732;27.192;2023-03-21T01:47:57;99735.22;;;1.30;100.00
62201;BME280;48197;42.732;27.192;2023-03-21T01:50:23;99731.47;;;1.34;100.00
62201;BME280;48197;42.732;27.192;2023-03-21T01:52:51;99731.03;;;1.45;100.00
62201;BME280;48197;42.732;27.192;2023-03-21T01:55:17;99737.50;;;1.52;100.00
62201;BME280;48197;42.732;27.192;2023-03-21T01:57:48;99734.97;;;1.59;100.00
62201;BME280;48197;42.732;27.192;2023-03-21T02:00:19;99737.34;;;1.73;100.00
62201;BME280;48197;42.732;27.192;2023-03-21T02:02:48;99728.88;;;1.91;100.00
62201;BME280;48197;42.732;27.192;2023-03-21T02:08:05;99715.19;;;2.31;100.00
62201;BME280;48197;42.732;27.192;2023-03-21T02:10:31;99721.56;;;2.51;100.00
62201;BME280;48197;42.732;27.192;2023-03-21T02:13:01;99715.75;;;2.69;100.00
62201;BME280;48197;42.732;27.192;2023-03-21T02:15:34;99723.63;;;2.86;100.00
62201;BME280;48197;42.732;27.192;2023-03-21T02:18:13;99721.59;;;2.99;100.00
62201;BME280;48197;42.732;27.192;2023-03-21T02:26:10;99736.53;;;3.21;100.00
62201;BME280;48197;42.732;27.192;2023-03-21T02:37:03;99740.00;;;3.53;100.00
62201;BME280;48197;42.732;27.192;2023-03-21T02:39:52;99732.34;;;3.59;100.00
62201;BME280;48197;42.732;27.192;2023-03-21T02:42:21;99737.16;;;3.65;100.00
62201;BME280;48197;42.732;27.192;2023-03-21T02:45:04;99731.91;;;3.76;100.00
62201;BME280;48197;42.732;27.192;2023-03-21T02:47:37;99733.00;;;3.91;100.00
62201;BME280;48197;42.732;27.192;2023-03-21T02:50:14;99735.53;;;4.00;100.00
62201;BME280;48197;42.732;27.192;2023-03-21T02:52:44;99735.22;;;4.05;100.00
62201;BME280;48197;42.732;27.192;2023-03-21T02:55:25;99739.25;;;4.11;100.00
62201;BME280;48197;42.732;27.192;2023-03-21T02:57:54;99742.09;;;4.15;100.00
62201;BME280;48197;42.732;27.192;2023-03-21T03:00:22;99732.78;;;4.19;100.00
62201;BME280;48197;42.732;27.192;2023-03-21T03:02:49;99746.59;;;4.26;100.00
62201;BME280;48197;42.732;27.192;2023-03-21T03:05:26;99745.09;;;4.29;100.00
62201;BME280;48197;42.732;27.192;2023-03-21T03:10:55;99736.59;;;4.34;100.00
62201;BME280;48197;42.732;27.192;2023-03-21T03:13:29;99730.34;;;4.34;100.00
62201;BME280;48197;42.732;27.192;2023-03-21T03:26:09;99710.00;;;4.35;100.00
62201;BME280;48197;42.732;27.192;2023-03-21T03:28:41;99702.16;;;4.33;100.00
62201;BME280;48197;42.732;27.192;2023-03-21T03:31:10;99711.53;;;4.32;100.00
62201;BME280;48197;42.732;27.192;2023-03-21T03:33:40;99708.88;;;4.36;100.00
62201;BME280;48197;42.732;27.192;2023-03-21T03:36:09;99707.00;;;4.40;100.00
62201;BME280;48197;42.732;27.192;2023-03-21T03:38:36;99708.56;;;4.41;100.00
62201;BME280;48197;42.732;27.192;2023-03-21T03:41:08;99707.84;;;4.44;100.00
62201;BME280;48197;42.732;27.192;2023-03-21T03:43:43;99713.75;;;4.46;100.00
62201;BME280;48197;42.732;27.192;2023-03-21T03:46:18;99707.13;;;4.47;100.00
62201;BME280;48197;42.732;27.192;2023-03-21T03:48:54;99710.28;;;4.49;100.00
62201;BME280;48197;42.732;27.192;2023-03-21T03:51:40;99697.03;;;4.51;100.00
62201;BME280;48197;42.732;27.192;2023-03-21T03:54:12;99699.44;;;4.56;100.00
62201;BME280;48197;42.732;27.192;2023-03-21T03:56:40;99700.72;;;4.62;100.00
62201;BME280;48197;42.732;27.192;2023-03-21T03:59:06;99692.59;;;4.66;100.00
62201;BME280;48197;42.732;27.192;2023-03-21T04:01:33;99696.53;;;4.68;100.00
62201;BME280;48197;42.732;27.192;2023-03-21T04:04:00;99693.09;;;4.72;100.00
62201;BME280;48197;42.732;27.192;2023-03-21T04:06:26;99693.56;;;4.77;100.00
62201;BME280;48197;42.732;27.192;2023-03-21T04:08:54;99700.31;;;4.83;100.00
62201;BME280;48197;42.732;27.192;2023-03-21T04:11:21;99693.38;;;4.89;100.00
62201;BME280;48197;42.732;27.192;2023-03-21T04:13:48;99700.91;;;4.96;100.00
62201;BME280;48197;42.732;27.192;2023-03-21T04:16:15;99702.53;;;5.01;100.00
62201;BME280;48197;42.732;27.192;2023-03-21T04:18:41;99701.81;;;5.04;100.00
62201;BME280;48197;42.732;27.192;2023-03-21T04:21:08;99704.59;;;5.07;100.00
62201;BME280;48197;42.732;27.192;2023-03-21T04:23:35;99693.34;;;5.13;100.00
62201;BME280;48197;42.732;27.192;2023-03-21T04:26:03;99706.78;;;5.21;100.00
62201;BME280;48197;42.732;27.192;2023-03-21T04:28:31;99697.97;;;5.35;100.00
62201;BME280;48197;42.732;27.192;2023-03-21T04:30:58;99701.28;;;5.48;100.00
62201;BME280;48197;42.732;27.192;2023-03-21T04:33:25;99707.31;;;5.57;100.00
62201;BME280;48197;42.732;27.192;2023-03-21T04:35:52;99700.38;;;5.67;100.00
62201;BME280;48197;42.732;27.192;2023-03-21T04:38:21;99708.72;;;5.78;100.00
62201;BME280;48197;42.732;27.192;2023-03-21T04:40:48;99720.22;;;5.87;100.00
62201;BME280;48197;42.732;27.192;2023-03-21T04:43:14;99714.03;;;5.93;100.00
62201;BME280;48197;42.732;27.192;2023-03-21T04:45:41;99715.28;;;5.96;100.00
62201;BME280;48197;42.732;27.192;2023-03-21T04:48:08;99705.09;;;5.97;100.00
62201;BME280;48197;42.732;27.192;2023-03-21T04:50:34;99710.19;;;5.98;100.00
62201;BME280;48197;42.732;27.192;2023-03-21T04:53:02;99708.25;;;5.99;100.00
62201;BME280;48197;42.732;27.192;2023-03-21T04:55:28;99718.00;;;5.96;100.00
62201;BME280;48197;42.732;27.192;2023-03-21T04:57:56;99714.19;;;6.04;100.00
62201;BME280;48197;42.732;27.192;2023-03-21T05:00:23;99728.00;;;6.11;100.00
62201;BME280;48197;42.732;27.192;2023-03-21T05:02:51;99720.19;;;6.13;100.00
62201;BME280;48197;42.732;27.192;2023-03-21T05:05:17;99716.28;;;6.15;100.00
62201;BME280;48197;42.732;27.192;2023-03-21T05:07:44;99716.66;;;6.13;100.00
62201;BME280;48197;42.732;27.192;2023-03-21T05:10:10;99714.31;;;6.15;100.00
62201;BME280;48197;42.732;27.192;2023-03-21T05:12:38;99722.22;;;6.20;100.00
62201;BME280;48197;42.732;27.192;2023-03-21T05:15:05;99724.63;;;6.25;100.00
62201;BME280;48197;42.732;27.192;2023-03-21T05:17:32;99726.63;;;6.28;100.00
62201;BME280;48197;42.732;27.192;2023-03-21T05:19:58;99726.69;;;6.36;100.00
62201;BME280;48197;42.732;27.192;2023-03-21T05:22:24;99722.03;;;6.40;100.00
62201;BME280;48197;42.732;27.192;2023-03-21T05:24:53;99727.53;;;6.40;100.00
62201;BME280;48197;42.732;27.192;2023-03-21T05:27:21;99719.38;;;6.47;100.00
62201;BME280;48197;42.732;27.192;2023-03-21T05:30:01;99720.22;;;6.51;100.00
62201;BME280;48197;42.732;27.192;2023-03-21T05:32:27;99718.72;;;6.61;100.00
62201;BME280;48197;42.732;27.192;2023-03-21T05:34:54;99721.16;;;6.69;100.00
62201;BME280;48197;42.732;27.192;2023-03-21T05:37:21;99725.53;;;6.78;100.00
62201;BME280;48197;42.732;27.192;2023-03-21T05:39:48;99724.44;;;6.86;100.00
62201;BME280;48197;42.732;27.192;2023-03-21T05:42:15;99724.09;;;6.91;100.00
62201;BME280;48197;42.732;27.192;2023-03-21T05:44:44;99725.41;;;7.04;100.00
62201;BME280;48197;42.732;27.192;2023-03-21T05:47:14;99734.78;;;7.03;100.00
62201;BME280;48197;42.732;27.192;2023-03-21T05:49:40;99744.59;;;7.01;100.00
62201;BME280;48197;42.732;27.192;2023-03-21T05:52:07;99746.97;;;7.02;100.00
62201;BME280;48197;42.732;27.192;2023-03-21T05:54:34;99750.97;;;7.12;100.00
62201;BME280;48197;42.732;27.192;2023-03-21T05:57:01;99752.97;;;7.19;100.00
62201;BME280;48197;42.732;27.192;2023-03-21T05:59:27;99751.88;;;7.27;100.00
62201;BME280;48197;42.732;27.192;2023-03-21T06:01:54;99746.06;;;7.39;100.00
62201;BME280;48197;42.732;27.192;2023-03-21T06:04:21;99736.75;;;7.58;100.00
62201;BME280;48197;42.732;27.192;2023-03-21T06:06:47;99727.84;;;7.83;100.00
62201;BME280;48197;42.732;27.192;2023-03-21T06:09:15;99722.03;;;7.98;100.00
62201;BME280;48197;42.732;27.192;2023-03-21T06:11:45;99714.59;;;8.10;100.00
62201;BME280;48197;42.732;27.192;2023-03-21T06:14:11;99713.06;;;8.23;100.00
62201;BME280;48197;42.732;27.192;2023-03-21T06:16:38;99715.88;;;8.37;100.00
62201;BME280;48197;42.732;27.192;2023-03-21T06:19:04;99725.38;;;8.54;100.00
62201;BME280;48197;42.732;27.192;2023-03-21T06:21:31;99728.56;;;8.67;100.00
62201;BME280;48197;42.732;27.192;2023-03-21T06:23:58;99738.81;;;9.28;100.00
62201;BME280;48197;42.732;27.192;2023-03-21T06:26:24;99745.09;;;9.60;100.00
62201;BME280;48197;42.732;27.192;2023-03-21T06:28:51;99741.53;;;9.60;100.00
62201;BME280;48197;42.732;27.192;2023-03-21T06:31:17;99734.06;;;9.53;100.00
62201;BME280;48197;42.732;27.192;2023-03-21T06:33:46;99731.72;;;9.52;100.00
62201;BME280;48197;42.732;27.192;2023-03-21T06:36:12;99733.19;;;9.89;100.00
62201;BME280;48197;42.732;27.192;2023-03-21T06:38:38;99726.81;;;10.10;100.00
62201;BME280;48197;42.732;27.192;2023-03-21T06:41:06;99725.91;;;10.38;100.00
62201;BME280;48197;42.732;27.192;2023-03-21T06:43:32;99721.78;;;10.64;100.00
62201;BME280;48197;42.732;27.192;2023-03-21T06:45:59;99724.94;;;10.66;100.00
62201;BME280;48197;42.732;27.192;2023-03-21T06:48:27;99720.16;;;10.74;100.00
62201;BME280;48197;42.732;27.192;2023-03-21T06:50:53;99720.84;;;10.89;100.00
62201;BME280;48197;42.732;27.192;2023-03-21T06:53:22;99730.69;;;10.90;100.00
62201;BME280;48197;42.732;27.192;2023-03-21T06:55:55;99734.75;;;10.78;100.00
62201;BME280;48197;42.732;27.192;2023-03-21T06:58:22;99733.59;;;10.75;100.00
62201;BME280;48197;42.732;27.192;2023-03-21T07:00:48;99733.53;;;10.82;100.00
62201;BME280;48197;42.732;27.192;2023-03-21T07:03:15;99735.69;;;11.09;100.00
62201;BME280;48197;42.732;27.192;2023-03-21T07:05:42;99735.84;;;11.40;100.00
62201;BME280;48197;42.732;27.192;2023-03-21T07:08:07;99729.97;;;12.10;100.00
62201;BME280;48197;42.732;27.192;2023-03-21T07:13:32;99738.06;;;13.10;100.00
62201;BME280;48197;42.732;27.192;2023-03-21T07:15:59;99740.16;;;13.02;100.00
62201;BME280;48197;42.732;27.192;2023-03-21T07:18:26;99728.03;;;12.92;100.00
62201;BME280;48197;42.732;27.192;2023-03-21T07:20:52;99729.50;;;13.24;100.00
62201;BME280;48197;42.732;27.192;2023-03-21T07:23:19;99734.53;;;13.33;100.00
62201;BME280;48197;42.732;27.192;2023-03-21T07:25:47;99728.59;;;13.54;100.00
62201;BME280;48197;42.732;27.192;2023-03-21T07:28:14;99732.66;;;14.49;100.00
62201;BME280;48197;42.732;27.192;2023-03-21T07:30:40;99728.44;;;15.60;100.00
62201;BME280;48197;42.732;27.192;2023-03-21T07:33:07;99723.78;;;16.41;100.00
62201;BME280;48197;42.732;27.192;2023-03-21T07:35:33;99715.59;;;16.21;100.00
62201;BME280;48197;42.732;27.192;2023-03-21T07:38:01;99722.50;;;15.74;100.00
62201;BME280;48197;42.732;27.192;2023-03-21T07:43:26;99708.84;;;16.60;100.00
62201;BME280;48197;42.732;27.192;2023-03-21T07:45:57;99707.34;;;17.20;93.87
62201;BME280;48197;42.732;27.192;2023-03-21T07:48:24;99708.97;;;17.43;93.05
62201;BME280;48197;42.732;27.192;2023-03-21T07:50:51;99703.38;;;16.69;89.97
62201;BME280;48197;42.732;27.192;2023-03-21T07:53:18;99708.38;;;16.36;92.77
62201;BME280;48197;42.732;27.192;2023-03-21T07:55:44;99717.50;;;15.82;93.72
62201;BME280;48197;42.732;27.192;2023-03-21T07:58:14;99717.75;;;15.42;95.70
62201;BME280;48197;42.732;27.192;2023-03-21T08:00:40;99711.69;;;14.81;98.26
62201;BME280;48197;42.732;27.192;2023-03-21T08:03:08;99716.59;;;14.94;100.00
62201;BME280;48197;42.732;27.192;2023-03-21T08:08:37;99707.81;;;15.86;95.18
62201;BME280;48197;42.732;27.192;2023-03-21T08:14:07;99698.63;;;16.15;92.58
62201;BME280;48197;42.732;27.192;2023-03-21T08:16:34;99702.25;;;16.28;93.45
62201;BME280;48197;42.732;27.192;2023-03-21T08:19:00;99699.78;;;16.18;92.37
62201;BME280;48197;42.732;27.192;2023-03-21T08:21:27;99698.56;;;15.89;92.70
62201;BME280;48197;42.732;27.192;2023-03-21T08:26:56;99702.44;;;16.21;91.39
62201;BME280;48197;42.732;27.192;2023-03-21T08:29:23;99700.91;;;16.33;91.88
62201;BME280;48197;42.732;27.192;2023-03-21T08:31:50;99708.03;;;16.47;91.18
62201;BME280;48197;42.732;27.192;2023-03-21T08:34:16;99707.03;;;16.41;90.20
62201;BME280;48197;42.732;27.192;2023-03-21T08:36:44;99710.41;;;16.48;89.46
62201;BME280;48197;42.732;27.192;2023-03-21T08:39:15;99711.06;;;16.65;91.21
62201;BME280;48197;42.732;27.192;2023-03-21T08:41:42;99710.84;;;17.11;89.94
62201;BME280;48197;42.732;27.192;2023-03-21T08:44:08;99706.59;;;17.06;86.16
62201;BME280;48197;42.732;27.192;2023-03-21T08:46:39;99715.00;;;16.81;88.87
62201;BME280;48197;42.732;27.192;2023-03-21T08:49:07;99716.78;;;17.00;88.39
62201;BME280;48197;42.732;27.192;2023-03-21T08:51:32;99719.50;;;17.26;85.07
62201;BME280;48197;42.732;27.192;2023-03-21T08:53:59;99712.84;;;17.58;84.56
62201;BME280;48197;42.732;27.192;2023-03-21T08:56:25;99714.47;;;17.68;84.37
62201;BME280;48197;42.732;27.192;2023-03-21T08:59:00;99710.09;;;18.02;81.62
62201;BME280;48197;42.732;27.192;2023-03-21T09:01:29;99711.75;;;17.78;81.12
62201;BME280;48197;42.732;27.192;2023-03-21T09:03:55;99709.25;;;17.92;82.97
62201;BME280;48197;42.732;27.192;2023-03-21T09:06:22;99714.66;;;18.40;82.61
62201;BME280;48197;42.732;27.192;2023-03-21T09:08:49;99711.22;;;18.36;80.76
62201;BME280;48197;42.732;27.192;2023-03-21T09:11:18;99717.03;;;17.75;81.96
62201;BME280;48197;42.732;27.192;2023-03-21T09:13:45;99708.09;;;17.46;83.88
62201;BME280;48197;42.732;27.192;2023-03-21T09:16:11;99705.31;;;17.33;86.24
62201;BME280;48197;42.732;27.192;2023-03-21T09:18:38;99706.63;;;16.93;85.30
62201;BME280;48197;42.732;27.192;2023-03-21T09:21:10;99700.88;;;16.20;87.68
62201;BME280;48197;42.732;27.192;2023-03-21T09:23:38;99707.31;;;15.46;92.26
62201;BME280;48197;42.732;27.192;2023-03-21T09:26:05;99698.53;;;15.15;94.37
62201;BME280;48197;42.732;27.192;2023-03-21T09:28:33;99698.13;;;15.00;95.74
62201;BME280;48197;42.732;27.192;2023-03-21T09:31:00;99696.53;;;15.31;96.50
62201;BME280;48197;42.732;27.192;2023-03-21T09:33:27;99708.34;;;15.52;96.22
62201;BME280;48197;42.732;27.192;2023-03-21T09:35:54;99695.06;;;15.27;97.94
62201;BME280;48197;42.732;27.192;2023-03-21T09:38:21;99693.03;;;15.44;98.63
62201;BME280;48197;42.732;27.192;2023-03-21T10:09:19;99668.59;;;18.32;85.66
62201;BME280;48197;42.732;27.192;2023-03-21T10:11:53;99671.06;;;18.21;83.90
62201;BME280;48197;42.732;27.192;2023-03-21T10:14:23;99674.06;;;18.04;84.17
62201;BME280;48197;42.732;27.192;2023-03-21T10:19:35;99662.66;;;18.21;84.45
62201;BME280;48197;42.732;27.192;2023-03-21T10:22:02;99668.41;;;18.57;84.20
62201;BME280;48197;42.732;27.192;2023-03-21T10:24:28;99667.31;;;19.05;82.48
62201;BME280;48197;42.732;27.192;2023-03-21T10:26:57;99662.47;;;19.05;82.20
62201;BME280;48197;42.732;27.192;2023-03-21T10:29:25;99658.72;;;18.81;81.90
62201;BME280;48197;42.732;27.192;2023-03-21T10:31:55;99659.53;;;19.00;81.19
62201;BME280;48197;42.732;27.192;2023-03-21T10:34:35;99663.88;;;18.91;81.40
62201;BME280;48197;42.732;27.192;2023-03-21T10:37:03;99653.16;;;18.99;80.43
62201;BME280;48197;42.732;27.192;2023-03-21T10:39:37;99653.16;;;18.99;80.05
62201;BME280;48197;42.732;27.192;2023-03-21T10:42:05;99655.25;;;18.76;80.97
62201;BME280;48197;42.732;27.192;2023-03-21T10:44:34;99646.16;;;18.54;82.34
62201;BME280;48197;42.732;27.192;2023-03-21T10:47:05;99645.50;;;18.81;81.63
62201;BME280;48197;42.732;27.192;2023-03-21T10:49:35;99643.19;;;18.98;81.04
62201;BME280;48197;42.732;27.192;2023-03-21T10:52:06;99636.19;;;19.03;80.74
62201;BME280;48197;42.732;27.192;2023-03-21T10:54:33;99628.72;;;19.09;80.37
62201;BME280;48197;42.732;27.192;2023-03-21T10:57:12;99629.69;;;19.15;80.76
62201;BME280;48197;42.732;27.192;2023-03-21T11:02:06;99627.50;;;18.51;80.73
62201;BME280;48197;42.732;27.192;2023-03-21T11:04:43;99629.97;;;18.49;80.74
62201;BME280;48197;42.732;27.192;2023-03-21T11:07:12;99631.59;;;18.77;80.25
62201;BME280;48197;42.732;27.192;2023-03-21T11:09:46;99623.31;;;19.14;79.00
62201;BME280;48197;42.732;27.192;2023-03-21T11:12:35;99616.63;;;19.40;77.46
62201;BME280;48197;42.732;27.192;2023-03-21T11:15:13;99615.34;;;19.22;71.06
62201;BME280;48197;42.732;27.192;2023-03-21T11:17:51;99617.84;;;19.38;70.83
62201;BME280;48197;42.732;27.192;2023-03-21T11:20:18;99610.06;;;19.43;70.63
62201;BME280;48197;42.732;27.192;2023-03-21T11:22:45;99608.53;;;19.23;70.63
62201;BME280;48197;42.732;27.192;2023-03-21T11:28:22;99596.06;;;19.15;71.61
62201;BME280;48197;42.732;27.192;2023-03-21T11:30:54;99589.50;;;19.36;70.93
62201;BME280;48197;42.732;27.192;2023-03-21T11:33:24;99592.78;;;19.44;69.39
62201;BME280;48197;42.732;27.192;2023-03-21T11:36:01;99585.47;;;19.47;69.36
62201;BME280;48197;42.732;27.192;2023-03-21T11:38:30;99589.19;;;19.34;67.37
62201;BME280;48197;42.732;27.192;2023-03-21T11:40:58;99581.25;;;19.33;68.01
62201;BME280;48197;42.732;27.192;2023-03-21T11:43:27;99566.91;;;19.77;67.51
62201;BME280;48197;42.732;27.192;2023-03-21T11:48:41;99573.47;;;20.74;64.17
62201;BME280;48197;42.732;27.192;2023-03-21T11:51:19;99560.28;;;20.89;63.06
62201;BME280;48197;42.732;27.192;2023-03-21T11:53:50;99566.75;;;20.80;62.80
62201;BME280;48197;42.732;27.192;2023-03-21T11:56:41;99561.91;;;20.48;63.28
62201;BME280;48197;42.732;27.192;2023-03-21T11:59:30;99561.03;;;20.08;64.25
62201;BME280;48197;42.732;27.192;2023-03-21T12:04:56;99567.84;;;19.55;64.59
62201;BME280;48197;42.732;27.192;2023-03-21T12:10:38;99573.94;;;18.98;66.47
62201;BME280;48197;42.732;27.192;2023-03-21T12:15:23;99571.25;;;18.76;66.84
62201;BME280;48197;42.732;27.192;2023-03-21T12:20:52;99573.38;;;18.54;67.01
62201;BME280;48197;42.732;27.192;2023-03-21T12:26:23;99563.72;;;18.36;68.18
62201;BME280;48197;42.732;27.192;2023-03-21T12:29:01;99558.19;;;18.64;67.89
62201;BME280;48197;42.732;27.192;2023-03-21T12:31:54;99557.94;;;18.81;66.53
62201;BME280;48197;42.732;27.192;2023-03-21T12:34:29;99554.47;;;18.76;66.40
62201;BME280;48197;42.732;27.192;2023-03-21T12:37:03;99554.97;;;18.84;65.94
62201;BME280;48197;42.732;27.192;2023-03-21T12:39:37;99544.69;;;18.81;66.22
62201;BME280;48197;42.732;27.192;2023-03-21T12:44:36;99538.94;;;18.75;66.34
62201;BME280;48197;42.732;27.192;2023-03-21T12:47:05;99524.44;;;18.77;65.67
62201;BME280;48197;42.732;27.192;2023-03-21T12:49:36;99527.25;;;18.68;65.78
62201;BME280;48197;42.732;27.192;2023-03-21T12:52:09;99527.25;;;18.59;65.97
62201;BME280;48197;42.732;27.192;2023-03-21T12:54:43;99533.16;;;18.61;66.08
62201;BME280;48197;42.732;27.192;2023-03-21T12:57:18;99539.66;;;18.57;66.05
62201;BME280;48197;42.732;27.192;2023-03-21T12:59:55;99529.38;;;18.45;66.07
62201;BME280;48197;42.732;27.192;2023-03-21T13:08:02;99530.84;;;17.78;71.07
62201;BME280;48197;42.732;27.192;2023-03-21T13:10:30;99524.16;;;17.75;72.15
62201;BME280;48197;42.732;27.192;2023-03-21T13:15:37;99512.78;;;17.70;73.09
62201;BME280;48197;42.732;27.192;2023-03-21T13:20:53;99516.16;;;17.11;74.93
62201;BME280;48197;42.732;27.192;2023-03-21T13:23:21;99514.66;;;16.98;75.61
62201;BME280;48197;42.732;27.192;2023-03-21T13:25:49;99513.94;;;16.84;75.35
62201;BME280;48197;42.732;27.192;2023-03-21T13:28:20;99512.06;;;16.68;76.68
62201;BME280;48197;42.732;27.192;2023-03-21T13:30:47;99511.41;;;16.64;76.78
62201;BME280;48197;42.732;27.192;2023-03-21T13:33:15;99502.78;;;16.84;76.58
62201;BME280;48197;42.732;27.192;2023-03-21T13:35:44;99494.28;;;16.88;76.11
62201;BME280;48197;42.732;27.192;2023-03-21T13:38:25;99484.22;;;16.90;75.71
62201;BME280;48197;42.732;27.192;2023-03-21T13:48:54;99493.25;;;16.94;74.99
62201;BME280;48197;42.732;27.192;2023-03-21T13:56:43;99493.38;;;16.56;76.88
62201;BME280;48197;42.732;27.192;2023-03-21T14:04:28;99476.84;;;15.08;86.36
62201;BME280;48197;42.732;27.192;2023-03-21T14:07:04;99484.59;;;14.87;87.89
62201;BME280;48197;42.732;27.192;2023-03-21T14:09:41;99487.41;;;14.55;90.17
62201;BME280;48197;42.732;27.192;2023-03-21T14:12:13;99481.78;;;14.42;91.81
62201;BME280;48197;42.732;27.192;2023-03-21T14:14:51;99483.88;;;14.38;92.91
62201;BME280;48197;42.732;27.192;2023-03-21T14:17:23;99484.31;;;14.36;93.44
62201;BME280;48197;42.732;27.192;2023-03-21T14:19:54;99479.88;;;14.39;94.30
62201;BME280;48197;42.732;27.192;2023-03-21T14:22:21;99471.63;;;14.35;94.17
62201;BME280;48197;42.732;27.192;2023-03-21T14:24:54;99473.41;;;14.13;95.05
62201;BME280;48197;42.732;27.192;2023-03-21T14:27:21;99469.72;;;13.99;96.79
62201;BME280;48197;42.732;27.192;2023-03-21T14:29:47;99461.22;;;14.06;97.27
62201;BME280;48197;42.732;27.192;2023-03-21T14:32:17;99452.19;;;14.02;97.50
62201;BME280;48197;42.732;27.192;2023-03-21T14:34:44;99461.75;;;13.85;99.48
62201;BME280;48197;42.732;27.192;2023-03-21T14:37:12;99469.03;;;13.79;100.00
62201;BME280;48197;42.732;27.192;2023-03-21T14:39:38;99480.28;;;13.72;100.00
62201;BME280;48197;42.732;27.192;2023-03-21T14:42:06;99483.84;;;13.56;100.00
62201;BME280;48197;42.732;27.192;2023-03-21T14:44:33;99492.03;;;13.43;100.00
62201;BME280;48197;42.732;27.192;2023-03-21T14:47:03;99499.56;;;13.22;100.00
62201;BME280;48197;42.732;27.192;2023-03-21T14:49:31;99506.69;;;13.03;100.00
62201;BME280;48197;42.732;27.192;2023-03-21T14:51:59;99509.31;;;12.91;100.00
62201;BME280;48197;42.732;27.192;2023-03-21T14:54:26;99516.75;;;12.74;100.00
62201;BME280;48197;42.732;27.192;2023-03-21T14:57:00;99513.13;;;12.57;100.00
62201;BME280;48197;42.732;27.192;2023-03-21T14:59:35;99519.06;;;12.32;100.00
62201;BME280;48197;42.732;27.192;2023-03-21T15:02:15;99519.16;;;12.01;100.00
62201;BME280;48197;42.732;27.192;2023-03-21T15:04:43;99512.50;;;11.68;100.00
62201;BME280;48197;42.732;27.192;2023-03-21T15:07:22;99518.34;;;11.46;100.00
62201;BME280;48197;42.732;27.192;2023-03-21T15:09:52;99520.03;;;11.36;100.00
62201;BME280;48197;42.732;27.192;2023-03-21T15:12:19;99518.59;;;11.24;100.00